Time;durP1;ratioP1;P1;durP2;ratioP2;P2;SDS_P1;SDS_P2;PMS_P1;PMS_P2;Temp;Humidity;BMP_temperature;BMP_pressure;BME280_temperature;BME280_humidity;BME280_pressure;Samples;Min_cycle;Max_cycle;Signal;HPM_P1;HPM_P2
2022/08/17 00:00:41;;;;;;;24.38;18.80;;;20.10;99.90;;;;;;4959998;28;20050;-76
2022/08/17 00:03:20;;;;;;;19.10;15.00;;;20.10;99.90;;;;;;4993234;28;20081;-79
2022/08/17 00:05:52;;;;;;;24.20;18.15;;;20.10;99.90;;;;;;4993016;28;20236;-74
2022/08/17 00:08:24;;;;;;;27.83;20.52;;;20.20;99.90;;;;;;4993255;28;20050;-78
2022/08/17 00:10:51;;;;;;;23.50;18.58;;;20.20;99.90;;;;;;4993013;28;20499;-78
2022/08/17 00:13:19;;;;;;;24.80;17.55;;;20.10;99.90;;;;;;4992998;28;20050;-79
2022/08/17 00:15:45;;;;;;;34.05;21.38;;;20.20;99.90;;;;;;4975605;28;20050;-78
2022/08/17 00:18:12;;;;;;;32.28;22.60;;;20.10;99.90;;;;;;4992618;28;20050;-79
2022/08/17 00:20:38;;;;;;;18.90;15.32;;;20.10;99.90;;;;;;4992809;28;20504;-79
2022/08/17 00:23:15;;;;;;;27.02;19.85;;;20.10;99.90;;;;;;4993403;28;20078;-78
2022/08/17 00:25:44;;;;;;;23.73;18.65;;;20.10;99.90;;;;;;4992923;28;20444;-79
2022/08/17 00:28:11;;;;;;;32.53;21.00;;;20.20;99.90;;;;;;4996745;28;20121;-77
2022/08/17 00:30:37;;;;;;;31.08;19.48;;;20.10;99.90;;;;;;4996863;28;20129;-78
2022/08/17 00:33:15;;;;;;;29.13;21.17;;;20.10;99.90;;;;;;4979757;28;20378;-78
2022/08/17 00:35:42;;;;;;;29.33;19.23;;;20.10;99.90;;;;;;4997207;28;20046;-78
2022/08/17 00:38:10;;;;;;;24.98;19.35;;;20.10;99.90;;;;;;4979106;28;20047;-80
2022/08/17 00:40:44;;;;;;;28.58;21.27;;;20.10;99.90;;;;;;4996656;28;20046;-78
2022/08/17 00:43:20;;;;;;;25.52;19.48;;;20.10;99.90;;;;;;4996606;28;20050;-77
2022/08/17 00:45:46;;;;;;;26.73;18.63;;;20.10;99.90;;;;;;4979003;28;20085;-74
2022/08/17 00:48:12;;;;;;;25.58;19.70;;;20.00;99.90;;;;;;4996399;28;20046;-77
2022/08/17 00:50:56;;;;;;;25.20;16.77;;;20.00;99.90;;;;;;4996533;28;20053;-79
2022/08/17 00:53:22;;;;;;;26.25;18.55;;;20.00;99.90;;;;;;4996499;28;20121;-74
2022/08/17 00:55:48;;;;;;;30.77;20.98;;;19.90;99.90;;;;;;4996348;28;20062;-79
2022/08/17 00:58:14;;;;;;;27.45;20.25;;;19.90;99.90;;;;;;4996287;28;20081;-78
2022/08/17 01:00:44;;;;;;;24.08;18.27;;;19.90;99.90;;;;;;4979012;28;20054;-78
2022/08/17 01:03:15;;;;;;;22.42;17.45;;;19.90;99.90;;;;;;4996669;28;20123;-75
2022/08/17 01:05:42;;;;;;;28.73;20.98;;;19.90;99.90;;;;;;4996128;28;20085;-79
2022/08/17 01:08:11;;;;;;;26.83;18.10;;;19.90;99.90;;;;;;4996129;28;20109;-77
2022/08/17 01:10:44;;;;;;;33.50;23.25;;;19.80;99.90;;;;;;4996449;28;20046;-77
2022/08/17 01:13:10;;;;;;;24.58;17.25;;;19.80;99.90;;;;;;4996405;28;20093;-76
2022/08/17 01:15:41;;;;;;;27.85;17.85;;;19.70;99.90;;;;;;4996409;28;20042;-78
2022/08/17 01:18:10;;;;;;;21.05;16.92;;;19.70;99.90;;;;;;4996105;28;20050;-78
2022/08/17 01:20:50;;;;;;;31.50;20.65;;;19.70;99.90;;;;;;4978504;28;20441;-77
2022/08/17 01:23:19;;;;;;;43.78;19.98;;;19.60;99.90;;;;;;4996412;28;20050;-78
2022/08/17 01:25:48;;;;;;;73.85;21.67;;;19.70;99.90;;;;;;4995813;28;20108;-74
2022/08/17 01:28:13;;;;;;;25.85;18.27;;;19.70;99.90;;;;;;4995423;28;20089;-74
2022/08/17 01:30:41;;;;;;;44.15;20.42;;;19.70;99.90;;;;;;4995540;28;20046;-76
2022/08/17 01:33:10;;;;;;;24.08;16.63;;;19.60;99.90;;;;;;4995178;28;20419;-77
2022/08/17 01:35:37;;;;;;;24.10;15.88;;;19.60;99.90;;;;;;4995511;28;20120;-76
2022/08/17 01:38:03;;;;;;;42.05;20.25;;;19.60;99.90;;;;;;4995111;28;20050;-77
2022/08/17 01:40:41;;;;;;;128.80;27.08;;;19.50;99.90;;;;;;4995277;28;20047;-77
2022/08/17 01:43:21;;;;;;;112.68;24.75;;;19.60;99.90;;;;;;4995536;28;20118;-75
2022/08/17 01:45:50;;;;;;;93.05;22.48;;;19.50;99.90;;;;;;4995728;28;20050;-77
2022/08/17 01:48:18;;;;;;;66.40;20.38;;;19.40;99.90;;;;;;4995721;28;20069;-76
2022/08/17 01:50:46;;;;;;;77.45;19.15;;;19.30;99.90;;;;;;4995887;28;20117;-76
2022/08/17 01:53:16;;;;;;;69.22;17.45;;;19.30;99.90;;;;;;4995313;28;20054;-74
2022/08/17 01:55:50;;;;;;;62.92;17.02;;;19.20;99.90;;;;;;4995377;28;20046;-77
2022/08/17 01:58:16;;;;;;;103.65;18.77;;;19.20;99.90;;;;;;4994895;28;20046;-77
2022/08/17 02:00:44;;;;;;;135.40;21.88;;;19.20;99.90;;;;;;4995507;28;20054;-79
2022/08/17 02:03:09;;;;;;;50.47;17.13;;;19.10;99.90;;;;;;4978359;28;20134;-78
2022/08/17 02:05:35;;;;;;;39.70;15.43;;;19.10;99.90;;;;;;4978029;28;20512;-78
2022/08/17 02:08:02;;;;;;;69.63;18.50;;;19.00;99.90;;;;;;4995065;28;20199;-77
2022/08/17 02:10:31;;;;;;;27.08;15.55;;;19.00;99.90;;;;;;4995421;28;20433;-78
2022/08/17 02:12:57;;;;;;;62.05;17.33;;;18.90;99.90;;;;;;4995273;28;20050;-77
2022/08/17 02:15:24;;;;;;;75.80;19.25;;;18.90;99.90;;;;;;4994919;28;20046;-79
2022/08/17 02:17:50;;;;;;;17.30;11.95;;;18.80;99.90;;;;;;4994765;28;20042;-76
2022/08/17 02:20:15;;;;;;;16.83;12.10;;;18.80;99.90;;;;;;4994846;28;20053;-78
2022/08/17 02:22:44;;;;;;;37.85;16.25;;;18.80;99.90;;;;;;4994581;28;20050;-79
2022/08/17 02:25:13;;;;;;;23.83;16.63;;;18.80;99.90;;;;;;4994599;28;20080;-75
2022/08/17 02:27:39;;;;;;;32.92;17.08;;;18.90;99.90;;;;;;4994688;28;20038;-77
2022/08/17 02:30:07;;;;;;;72.63;18.08;;;18.80;99.90;;;;;;4994706;28;20129;-78
2022/08/17 02:32:33;;;;;;;36.72;15.57;;;18.90;99.90;;;;;;4994618;28;20050;-77
2022/08/17 02:34:59;;;;;;;53.58;18.77;;;19.00;99.90;;;;;;4994609;28;20046;-78
2022/08/17 02:37:26;;;;;;;82.05;18.35;;;18.80;99.90;;;;;;4994358;28;20034;-75
2022/08/17 02:39:55;;;;;;;46.88;17.50;;;18.00;99.90;;;;;;4977224;28;20050;-78
2022/08/17 02:42:35;;;;;;;41.20;15.95;;;18.70;99.90;;;;;;4994372;28;20086;-77
2022/08/17 02:45:03;;;;;;;51.00;17.13;;;18.70;99.90;;;;;;4994461;28;20084;-77
2022/08/17 02:47:30;;;;;;;41.78;16.70;;;18.70;99.90;;;;;;4994218;28;20061;-74
2022/08/17 02:49:55;;;;;;;38.85;16.48;;;18.60;99.90;;;;;;4993545;28;20109;-77
2022/08/17 02:52:21;;;;;;;31.95;15.90;;;18.60;99.90;;;;;;4994122;28;20061;-74
2022/08/17 02:54:47;;;;;;;33.53;17.85;;;18.60;99.90;;;;;;4994107;28;20095;-79
2022/08/17 02:57:13;;;;;;;41.25;16.38;;;18.70;99.90;;;;;;4993621;28;20053;-77
2022/08/17 02:59:39;;;;;;;48.03;17.00;;;18.70;99.90;;;;;;4994211;28;20050;-76
2022/08/17 03:02:06;;;;;;;38.60;15.77;;;18.70;99.90;;;;;;4993943;28;20042;-77
2022/08/17 03:04:32;;;;;;;37.80;17.52;;;18.70;99.90;;;;;;4993902;28;20113;-77
2022/08/17 03:06:58;;;;;;;57.42;21.33;;;18.80;99.90;;;;;;4993928;28;20050;-78
2022/08/17 03:09:24;;;;;;;38.78;18.63;;;18.80;99.90;;;;;;4994211;28;20086;-77
2022/08/17 03:11:50;;;;;;;22.63;15.80;;;18.60;99.90;;;;;;4993797;28;20085;-77
2022/08/17 03:14:17;;;;;;;22.73;16.45;;;18.60;99.90;;;;;;4994046;28;20165;-76
2022/08/17 03:16:43;;;;;;;20.85;15.25;;;18.60;99.90;;;;;;4993907;28;20487;-76
2022/08/17 03:19:08;;;;;;;21.88;16.02;;;18.60;99.90;;;;;;4993729;28;20085;-76
2022/08/17 03:21:34;;;;;;;19.40;15.95;;;18.60;99.90;;;;;;4993602;28;20050;-78
2022/08/17 03:24:00;;;;;;;21.42;16.80;;;18.60;99.90;;;;;;4976602;28;20054;-76
2022/08/17 03:26:26;;;;;;;20.70;17.40;;;;;;;;;;4976111;28;20049;-74
2022/08/17 03:28:52;;;;;;;24.50;15.68;;;18.50;99.90;;;;;;4993540;28;20104;-78
2022/08/17 03:31:19;;;;;;;20.88;17.38;;;18.50;99.90;;;;;;4993461;28;20085;-77
2022/08/17 03:33:45;;;;;;;26.33;19.30;;;;;;;;;;4993117;28;20513;-78
2022/08/17 03:36:11;;;;;;;24.67;18.85;;;;;;;;;;4993036;28;20410;-76
2022/08/17 03:38:37;;;;;;;19.08;14.60;;;;;;;;;;4993322;28;20085;-75
2022/08/17 03:41:05;;;;;;;25.13;19.52;;;18.50;99.90;;;;;;4993175;28;20050;-77
2022/08/17 03:43:32;;;;;;;16.85;15.00;;;18.50;99.90;;;;;;4993249;28;20077;-76
2022/08/17 03:57:07;;;;;;;26.15;17.50;;;18.60;99.90;;;;;;4978997;28;20386;-77
2022/08/17 03:59:34;;;;;;;22.45;16.55;;;18.60;99.90;;;;;;4993288;28;20379;-78
2022/08/17 04:02:06;;;;;;;24.42;17.42;;;18.60;99.90;;;;;;4993322;28;20050;-74
2022/08/17 04:04:32;;;;;;;36.88;20.10;;;18.50;99.90;;;;;;4993014;28;20104;-78
2022/08/17 04:06:58;;;;;;;34.17;17.42;;;;;;;;;;4992775;28;20160;-78
2022/08/17 04:09:24;;;;;;;25.33;16.42;;;;;;;;;;4993007;28;20170;-75
2022/08/17 04:11:52;;;;;;;19.98;15.60;;;;;;;;;;4992808;28;20061;-77
2022/08/17 04:14:18;;;;;;;24.15;18.70;;;18.50;99.90;;;;;;4993334;28;20059;-78
2022/08/17 04:16:44;;;;;;;23.27;17.23;;;18.50;99.90;;;;;;4975559;28;20169;-78
2022/08/17 04:19:10;;;;;;;18.92;15.38;;;18.50;99.90;;;;;;4993189;28;20475;-77
2022/08/17 04:21:35;;;;;;;23.10;15.32;;;18.50;99.90;;;;;;4992931;28;20050;-78
2022/08/17 04:24:02;;;;;;;21.63;16.83;;;18.50;99.90;;;;;;4992922;28;20050;-77
2022/08/17 04:26:28;;;;;;;21.90;17.08;;;18.60;99.90;;;;;;4993409;28;20050;-78
2022/08/17 04:28:54;;;;;;;24.23;18.10;;;18.50;99.90;;;;;;4992773;28;20560;-78
2022/08/17 04:31:20;;;;;;;20.25;16.45;;;18.60;99.90;;;;;;4992815;28;20129;-77
2022/08/17 04:33:45;;;;;;;24.77;18.40;;;18.60;99.90;;;;;;4992908;28;20125;-76
2022/08/17 04:36:14;;;;;;;22.38;17.23;;;18.60;99.90;;;;;;4993203;28;20058;-77
2022/08/17 04:38:42;;;;;;;24.63;18.02;;;18.70;99.90;;;;;;4993068;28;20062;-77
2022/08/17 04:43:57;;;;;;;29.70;19.48;;;18.70;99.90;;;;;;4992861;28;20050;-77
2022/08/17 04:46:33;;;;;;;28.33;21.30;;;18.70;99.90;;;;;;4975310;28;20479;-77
2022/08/17 04:49:02;;;;;;;31.30;21.88;;;18.70;99.90;;;;;;4993193;28;20161;-77
2022/08/17 04:51:34;;;;;;;35.42;23.73;;;18.70;99.90;;;;;;4992991;28;20050;-77
2022/08/17 04:54:15;;;;;;;32.05;23.38;;;18.70;99.90;;;;;;4992613;28;20050;-76
2022/08/17 04:56:40;;;;;;;29.80;22.42;;;18.80;99.90;;;;;;4992501;28;20105;-78
2022/08/17 04:59:09;;;;;;;31.20;22.70;;;18.80;99.90;;;;;;4992499;28;20054;-78
2022/08/17 05:01:37;;;;;;;33.75;22.83;;;18.90;99.90;;;;;;4992474;28;20049;-77
2022/08/17 05:04:06;;;;;;;34.28;23.85;;;18.90;99.90;;;;;;4975093;28;20046;-75
2022/08/17 05:06:32;;;;;;;34.83;24.95;;;18.90;99.90;;;;;;4992437;28;20050;-78
2022/08/17 05:08:58;;;;;;;31.63;23.40;;;19.00;99.90;;;;;;4992809;28;20046;-75
2022/08/17 05:11:26;;;;;;;35.35;23.65;;;19.00;99.90;;;;;;4992516;28;20459;-76
2022/08/17 05:13:53;;;;;;;35.72;24.70;;;19.00;99.90;;;;;;4995012;28;20438;-77
2022/08/17 05:16:22;;;;;;;33.15;22.73;;;19.10;99.90;;;;;;4978843;28;20108;-76
2022/08/17 05:18:48;;;;;;;40.67;26.85;;;19.10;99.90;;;;;;4996009;28;20069;-77
2022/08/17 05:21:14;;;;;;;31.52;22.08;;;19.10;99.90;;;;;;4995995;28;20478;-77
2022/08/17 05:23:40;;;;;;;38.33;26.17;;;19.10;99.90;;;;;;4996302;28;20065;-74
2022/08/17 05:26:06;;;;;;;40.97;26.08;;;19.10;99.90;;;;;;4996018;28;20152;-74
2022/08/17 05:28:32;;;;;;;34.03;22.83;;;19.00;99.90;;;;;;4995782;28;20050;-77
2022/08/17 05:31:00;;;;;;;42.60;28.58;;;19.00;99.90;;;;;;4978410;28;20038;-77
2022/08/17 05:33:38;;;;;;;35.53;25.55;;;19.00;99.90;;;;;;4962643;28;20058;-75
2022/08/17 05:36:06;;;;;;;36.85;24.77;;;19.00;99.90;;;;;;4995331;28;20483;-77
2022/08/17 05:38:32;;;;;;;40.78;28.13;;;19.10;99.90;;;;;;4995824;28;20085;-76
2022/08/17 05:41:04;;;;;;;43.15;28.20;;;19.00;99.90;;;;;;4978539;28;20442;-76
2022/08/17 05:43:36;;;;;;;33.92;24.63;;;19.00;99.90;;;;;;4995576;28;20054;-74
2022/08/17 05:46:17;;;;;;;40.47;27.95;;;19.10;99.90;;;;;;4995247;28;20058;-74
2022/08/17 05:48:46;;;;;;;38.03;24.73;;;19.10;99.90;;;;;;4994878;28;20053;-73
2022/08/17 05:51:23;;;;;;;36.83;24.50;;;19.10;99.90;;;;;;4995394;28;20112;-75
2022/08/17 05:53:54;;;;;;;45.58;29.40;;;19.20;99.90;;;;;;4995345;28;20471;-74
2022/08/17 05:56:44;;;;;;;41.92;26.05;;;19.20;99.90;;;;;;4994887;28;20096;-72
2022/08/17 05:59:37;;;;;;;44.80;30.60;;;19.20;99.90;;;;;;4995342;28;20057;-76
2022/08/17 06:02:56;;;;;;;48.53;28.92;;;19.20;99.90;;;;;;4994837;28;20085;-75
2022/08/17 06:06:06;;;;;;;43.38;29.40;;;19.30;99.90;;;;;;4941393;28;20115;-75
2022/08/17 06:08:42;;;;;;;51.05;32.65;;;19.30;99.90;;;;;;4934630;29;20595;-73
2022/08/17 06:11:32;;;;;;;44.60;29.42;;;19.30;99.90;;;;;;4934453;29;20095;-73
2022/08/17 06:14:37;;;;;;;41.80;25.65;;;19.30;99.90;;;;;;4975971;28;20112;-75
2022/08/17 06:17:09;;;;;;;46.97;29.83;;;19.40;99.90;;;;;;4994338;28;20088;-74
2022/08/17 06:19:53;;;;;;;48.30;31.73;;;19.40;99.90;;;;;;4994692;28;20069;-75
2022/08/17 06:22:22;;;;;;;41.53;29.25;;;19.40;99.90;;;;;;4994542;28;20065;-74
2022/08/17 06:24:55;;;;;;;45.75;32.40;;;19.40;99.90;;;;;;4992902;28;20058;-73
2022/08/17 06:27:39;;;;;;;44.13;29.30;;;19.40;99.90;;;;;;4994151;28;20077;-73
2022/08/17 06:30:13;;;;;;;48.33;29.90;;;19.30;99.90;;;;;;4977377;28;20054;-75
2022/08/17 06:32:42;;;;;;;45.33;29.42;;;19.40;99.90;;;;;;4994376;28;20042;-74
2022/08/17 06:35:11;;;;;;;48.08;34.38;;;19.40;99.90;;;;;;4994257;28;20049;-73
2022/08/17 06:37:50;;;;;;;46.33;31.83;;;19.40;99.90;;;;;;4994111;28;20047;-75
2022/08/17 06:40:50;;;;;;;51.65;32.58;;;19.40;99.90;;;;;;4994517;28;20088;-76
2022/08/17 06:43:31;;;;;;;49.63;31.58;;;19.40;99.90;;;;;;4993959;28;20132;-73
2022/08/17 06:46:12;;;;;;;51.42;32.80;;;19.40;99.90;;;;;;4993955;28;20112;-73
2022/08/17 06:49:16;;;;;;;38.25;25.38;;;19.40;99.90;;;;;;4993948;28;20197;-73
2022/08/17 06:51:50;;;;;;;51.33;31.90;;;19.50;99.90;;;;;;4969842;28;20065;-72
2022/08/17 06:54:33;;;;;;;57.58;34.40;;;19.50;99.90;;;;;;4976359;28;20054;-73
2022/08/17 06:57:13;;;;;;;54.38;33.75;;;19.50;99.90;;;;;;4993842;28;20106;-72
2022/08/17 06:59:53;;;;;;;59.50;37.55;;;19.50;99.90;;;;;;4993665;28;20050;-71
2022/08/17 07:02:44;;;;;;;58.40;37.22;;;19.60;99.90;;;;;;4993511;28;20097;-72
2022/08/17 07:05:13;;;;;;;63.67;38.60;;;19.50;99.90;;;;;;4980287;28;20058;-72
2022/08/17 07:08:03;;;;;;;63.47;38.45;;;19.60;99.90;;;;;;4993577;28;20065;-72
2022/08/17 07:10:36;;;;;;;68.05;40.58;;;19.50;99.90;;;;;;4976574;28;20328;-72
2022/08/17 07:13:29;;;;;;;72.85;39.35;;;19.60;99.90;;;;;;4993761;28;20069;-72
2022/08/17 07:16:17;;;;;;;60.15;36.28;;;19.70;99.90;;;;;;4993409;28;20042;-72
2022/08/17 07:18:43;;;;;;;68.13;39.05;;;19.70;99.90;;;;;;4992984;28;20557;-72
2022/08/17 07:21:20;;;;;;;73.60;39.45;;;19.70;99.90;;;;;;4993388;28;20054;-71
2022/08/17 07:23:59;;;;;;;57.58;36.20;;;19.80;99.90;;;;;;4993045;28;20567;-71
2022/08/17 07:26:26;;;;;;;61.25;38.55;;;19.90;99.90;;;;;;4993004;28;20065;-72
2022/08/17 07:28:54;;;;;;;68.18;38.28;;;19.90;99.90;;;;;;4993334;28;20104;-73
2022/08/17 07:31:22;;;;;;;66.93;34.45;;;20.00;99.90;;;;;;4993090;28;20050;-71
2022/08/17 07:34:13;;;;;;;51.75;30.90;;;20.00;99.90;;;;;;4993622;28;20086;-71
2022/08/17 07:36:40;;;;;;;50.67;31.48;;;20.00;99.90;;;;;;4993084;28;20120;-72
2022/08/17 07:39:08;;;;;;;61.33;34.97;;;20.10;99.90;;;;;;4976091;28;20051;-72
2022/08/17 07:41:39;;;;;;;61.42;35.53;;;20.10;99.90;;;;;;4993061;28;20531;-73
2022/08/17 07:44:14;;;;;;;54.08;32.95;;;20.10;99.90;;;;;;4993328;28;20050;-73
2022/08/17 07:49:41;;;;;;;45.92;29.17;;;20.10;99.90;;;;;;4993043;28;20058;-72
2022/08/17 07:52:25;;;;;;;45.28;30.70;;;20.10;99.90;;;;;;4992843;28;20069;-72
2022/08/17 07:54:51;;;;;;;48.97;31.95;;;20.10;99.90;;;;;;4992553;28;20475;-72
2022/08/17 07:57:21;;;;;;;48.72;29.08;;;20.10;99.90;;;;;;4992149;28;20069;-71
2022/08/17 07:59:59;;;;;;;51.80;30.85;;;20.10;99.90;;;;;;4992946;28;20047;-72
2022/08/17 08:02:27;;;;;;;37.70;24.80;;;20.20;99.90;;;;;;4992766;28;20054;-71
2022/08/17 08:05:04;;;;;;;42.08;27.42;;;20.40;99.90;;;;;;4993050;28;20083;-72
2022/08/17 08:07:38;;;;;;;47.63;29.00;;;20.60;99.90;;;;;;4993049;28;20038;-71
2022/08/17 08:10:12;;;;;;;48.92;30.20;;;20.70;99.90;;;;;;4975332;28;20161;-72
2022/08/17 08:12:46;;;;;;;52.75;29.95;;;20.70;99.90;;;;;;4992633;28;20058;-72
2022/08/17 08:15:32;;;;;;;44.10;28.05;;;20.70;99.90;;;;;;4992644;28;20132;-72
2022/08/17 08:18:01;;;;;;;44.55;27.05;;;20.70;99.90;;;;;;4992848;28;20046;-71
2022/08/17 08:20:48;;;;;;;44.03;27.70;;;20.80;99.90;;;;;;4992621;28;20085;-72
2022/08/17 08:23:24;;;;;;;41.17;26.63;;;20.80;99.90;;;;;;4992810;28;20081;-72
2022/08/17 08:26:02;;;;;;;40.53;25.60;;;20.80;99.90;;;;;;4992842;28;20058;-72
2022/08/17 08:28:44;;;;;;;46.28;27.55;;;20.90;99.90;;;;;;4992534;28;20086;-73
2022/08/17 08:31:34;;;;;;;36.05;23.70;;;21.00;99.90;;;;;;4992974;28;20054;-72
2022/08/17 08:34:22;;;;;;;44.90;29.48;;;21.00;99.90;;;;;;4992698;28;20054;-72
2022/08/17 08:37:15;;;;;;;42.95;27.85;;;21.00;99.90;;;;;;4992803;28;20121;-73
2022/08/17 08:39:55;;;;;;;41.13;27.55;;;21.00;99.90;;;;;;4992552;28;20471;-72
2022/08/17 08:42:27;;;;;;;36.17;24.60;;;21.10;99.90;;;;;;4992924;28;20097;-72
2022/08/17 08:45:19;;;;;;;40.30;27.15;;;21.10;99.90;;;;;;4975199;28;20068;-73
2022/08/17 08:48:13;;;;;;;41.15;27.45;;;21.30;99.90;;;;;;4993984;28;20049;-74
2022/08/17 08:50:50;;;;;;;39.55;24.88;;;21.50;99.90;;;;;;4996345;28;20497;-74
2022/08/17 08:53:31;;;;;;;34.50;25.38;;;21.60;99.90;;;;;;4996868;28;20046;-72
2022/08/17 08:56:06;;;;;;;42.30;25.80;;;21.60;99.90;;;;;;4996577;28;20423;-73
2022/08/17 08:59:00;;;;;;;46.90;31.05;;;21.60;99.90;;;;;;4995477;28;20038;-72
2022/08/17 09:01:44;;;;;;;41.47;27.10;;;21.50;99.90;;;;;;4995159;28;20590;-72
2022/08/17 09:04:36;;;;;;;49.22;32.42;;;21.30;99.90;;;;;;4995293;28;20050;-73
2022/08/17 09:07:22;;;;;;;51.55;32.13;;;21.30;99.90;;;;;;4995006;28;20096;-72
2022/08/17 09:10:07;;;;;;;50.67;29.75;;;21.20;99.90;;;;;;4978602;28;20411;-73
2022/08/17 09:12:58;;;;;;;49.13;30.42;;;21.30;99.90;;;;;;4995558;28;20053;-73
2022/08/17 09:15:29;;;;;;;42.83;26.67;;;21.40;99.90;;;;;;4995473;28;20493;-72
2022/08/17 09:18:05;;;;;;;48.88;30.52;;;21.50;99.90;;;;;;4995395;28;20042;-72
2022/08/17 09:20:42;;;;;;;37.67;24.60;;;21.70;99.90;;;;;;4995794;28;20050;-75
2022/08/17 09:23:11;;;;;;;39.65;26.88;;;21.80;99.90;;;;;;4995447;28;20092;-72
2022/08/17 09:26:13;;;;;;;40.88;25.85;;;21.90;99.90;;;;;;4978132;28;20363;-75
2022/08/17 09:28:43;;;;;;;38.40;24.42;;;21.90;99.90;;;;;;4975668;28;20132;-75
2022/08/17 09:31:15;;;;;;;39.83;25.30;;;21.90;99.90;;;;;;4994752;28;20470;-75
2022/08/17 09:33:47;;;;;;;40.03;24.95;;;21.90;99.90;;;;;;4995459;28;20057;-74
2022/08/17 09:36:38;;;;;;;39.22;24.67;;;21.80;99.90;;;;;;4995111;28;20047;-75
2022/08/17 09:39:14;;;;;;;38.53;24.88;;;21.80;99.90;;;;;;4995524;28;20054;-75
2022/08/17 09:41:43;;;;;;;40.45;25.13;;;21.90;99.90;;;;;;4995223;28;20072;-74
2022/08/17 09:44:27;;;;;;;40.03;25.27;;;22.00;99.90;;;;;;4977289;28;20050;-73
2022/08/17 09:47:10;;;;;;;42.83;26.80;;;21.90;99.90;;;;;;4977796;28;20487;-76
2022/08/17 09:49:48;;;;;;;39.28;24.98;;;21.90;99.90;;;;;;4994657;28;20125;-74
2022/08/17 09:52:21;;;;;;;36.78;23.90;;;21.80;99.90;;;;;;4994734;28;20054;-75
2022/08/17 09:54:50;;;;;;;39.97;26.13;;;21.70;99.90;;;;;;4994557;28;20132;-75
2022/08/17 09:57:22;;;;;;;35.00;20.92;;;21.60;99.90;;;;;;4994385;28;20049;-73
2022/08/17 10:00:17;;;;;;;36.25;26.63;;;21.70;99.90;;;;;;4994140;28;20479;-75
2022/08/17 10:03:09;;;;;;;41.35;27.70;;;21.60;99.90;;;;;;4994514;28;20047;-74
2022/08/17 10:06:14;;;;;;;38.50;24.67;;;21.50;99.90;;;;;;4994476;28;20049;-77
2022/08/17 10:08:56;;;;;;;41.28;27.58;;;21.50;99.90;;;;;;4994734;28;20049;-76
2022/08/17 10:14:38;;;;;;;45.53;28.65;;;21.60;99.90;;;;;;4994640;28;20058;-75
2022/08/17 10:17:21;;;;;;;43.17;26.38;;;21.70;99.90;;;;;;4994725;28;20050;-76
2022/08/17 10:20:08;;;;;;;45.60;28.38;;;21.90;99.90;;;;;;4994830;28;20047;-74
2022/08/17 10:28:16;;;;;;;39.30;26.75;;;22.10;99.90;;;;;;4994342;28;20096;-77
2022/08/17 10:30:50;;;;;;;46.30;28.98;;;21.90;99.90;;;;;;4994346;28;20050;-74
2022/08/17 10:33:25;;;;;;;44.80;28.70;;;22.10;99.90;;;;;;4994629;28;20076;-75
2022/08/17 10:36:05;;;;;;;49.08;30.70;;;22.00;99.90;;;;;;4976608;28;20068;-76
2022/08/17 10:38:40;;;;;;;49.72;31.50;;;22.00;99.90;;;;;;4993727;28;20042;-76
2022/08/17 10:41:22;;;;;;;54.05;33.03;;;21.90;99.90;;;;;;4994150;28;20049;-75
2022/08/17 10:44:10;;;;;;;44.27;27.27;;;21.90;99.90;;;;;;4993833;28;20057;-76
2022/08/17 10:46:55;;;;;;;49.28;31.23;;;22.10;99.90;;;;;;4993549;28;20281;-75
2022/08/17 10:49:22;;;;;;;46.80;30.27;;;22.10;99.90;;;;;;4993842;28;20081;-77
2022/08/17 10:51:52;;;;;;;43.20;28.08;;;22.10;99.90;;;;;;4993485;28;20388;-77
2022/08/17 10:54:24;;;;;;;43.50;29.17;;;22.30;99.90;;;;;;4975708;28;20050;-77
2022/08/17 10:56:51;;;;;;;52.45;32.40;;;22.50;99.90;;;;;;4993354;28;20129;-75
2022/08/17 10:59:35;;;;;;;48.55;29.85;;;22.40;99.90;;;;;;4993640;28;20509;-74
2022/08/17 11:02:27;;;;;;;43.60;28.83;;;22.40;99.90;;;;;;4993594;28;20062;-77
2022/08/17 11:04:59;;;;;;;39.13;28.02;;;22.60;99.90;;;;;;4993632;28;20125;-75
2022/08/17 11:07:34;;;;;;;47.97;31.73;;;22.60;99.90;;;;;;4993453;28;20046;-76
2022/08/17 11:10:18;;;;;;;47.70;29.90;;;22.60;99.90;;;;;;4992671;28;20125;-77
2022/08/17 11:13:04;;;;;;;43.33;27.70;;;22.70;99.90;;;;;;4993316;28;20046;-73
2022/08/17 11:15:40;;;;;;;39.30;25.75;;;22.80;99.90;;;;;;4993174;28;20050;-73
2022/08/17 11:18:31;;;;;;;39.88;26.30;;;22.90;99.90;;;;;;4976285;28;20097;-75
2022/08/17 11:21:02;;;;;;;38.17;24.75;;;23.20;99.90;;;;;;4993395;28;20046;-76
2022/08/17 11:23:49;;;;;;;41.97;29.67;;;23.40;99.90;;;;;;4992822;28;20046;-73
2022/08/17 11:26:35;;;;;;;38.40;27.80;;;23.20;99.90;;;;;;4992474;28;20097;-76
2022/08/17 11:29:09;;;;;;;43.55;28.90;;;23.40;99.90;;;;;;4992796;28;20050;-75
2022/08/17 11:31:35;;;;;;;43.28;27.75;;;23.60;99.90;;;;;;4992738;28;20440;-75
2022/08/17 11:34:20;;;;;;;35.85;25.65;;;23.70;99.90;;;;;;4975603;28;20047;-74
2022/08/17 11:37:07;;;;;;;38.00;27.45;;;23.70;99.90;;;;;;4992821;28;20042;-75
2022/08/17 11:39:47;;;;;;;31.45;23.08;;;23.80;99.90;;;;;;4993207;28;20054;-74
2022/08/17 11:42:48;;;;;;;36.20;23.75;;;23.70;99.90;;;;;;4975703;28;20130;-77
2022/08/17 11:45:38;;;;;;;31.15;21.45;;;23.50;99.90;;;;;;4898170;29;20061;-78
2022/08/17 11:51:32;;;;;;;24.38;18.77;;;23.30;99.90;;;;;;4971583;28;20115;-80
2022/08/17 11:54:08;;;;;;;27.00;17.33;;;23.30;99.90;;;;;;4991233;28;20140;-75
2022/08/17 11:56:48;;;;;;;22.65;17.35;;;23.30;99.90;;;;;;4992671;28;20050;-78
2022/08/17 11:59:32;;;;;;;23.05;17.10;;;23.20;99.90;;;;;;4992218;28;20379;-78
2022/08/17 12:02:24;;;;;;;21.17;15.75;;;23.40;99.90;;;;;;4992356;28;20046;-78
2022/08/17 12:05:15;;;;;;;24.25;18.05;;;23.50;99.90;;;;;;4992281;28;20069;-79
2022/08/17 12:07:57;;;;;;;18.38;14.18;;;23.50;99.90;;;;;;4992123;28;20046;-76
2022/08/17 12:10:31;;;;;;;15.30;13.05;;;23.60;99.90;;;;;;4992223;28;20116;-77
2022/08/17 12:13:00;;;;;;;16.17;13.35;;;23.60;99.90;;;;;;4992149;28;20450;-76
2022/08/17 12:15:30;;;;;;;16.00;13.60;;;23.50;99.90;;;;;;4992244;28;20046;-76
2022/08/17 12:17:56;;;;;;;20.45;14.02;;;23.40;99.90;;;;;;4974739;28;20046;-77
2022/08/17 12:20:34;;;;;;;19.55;14.93;;;23.50;99.90;;;;;;4992149;28;20421;-79
2022/08/17 12:23:08;;;;;;;17.52;12.75;;;23.50;99.90;;;;;;4994071;28;20057;-76
2022/08/17 12:25:40;;;;;;;15.73;13.00;;;23.60;99.90;;;;;;4996428;28;20123;-74
2022/08/17 12:28:20;;;;;;;12.98;11.52;;;23.60;99.90;;;;;;4996265;28;20038;-75
2022/08/17 12:30:50;;;;;;;16.10;12.77;;;23.70;99.90;;;;;;4996694;28;20050;-75
2022/08/17 12:33:20;;;;;;;17.50;12.73;;;23.80;99.90;;;;;;4996426;28;20069;-74
2022/08/17 12:35:46;;;;;;;13.32;11.55;;;23.90;99.90;;;;;;4995890;28;20537;-77
2022/08/17 12:38:14;;;;;;;16.30;12.65;;;24.00;99.90;;;;;;4996320;28;20550;-74
2022/08/17 12:40:53;;;;;;;15.55;13.27;;;23.90;99.90;;;;;;4996065;28;20054;-76
2022/08/17 12:43:25;;;;;;;17.83;13.05;;;23.70;99.90;;;;;;4996257;28;20121;-79
2022/08/17 12:45:58;;;;;;;16.27;13.50;;;23.90;99.90;;;;;;4995890;28;20038;-74
2022/08/17 12:48:30;;;;;;;16.95;13.43;;;23.80;99.90;;;;;;4996199;28;20049;-76
2022/08/17 12:51:02;;;;;;;13.75;12.20;;;24.00;99.90;;;;;;4978691;28;20078;-73
2022/08/17 12:53:31;;;;;;;14.18;10.73;;;24.00;99.90;;;;;;4995854;28;20063;-76
2022/08/17 12:55:58;;;;;;;17.08;11.65;;;23.80;99.90;;;;;;4994840;28;20483;-75
2022/08/17 12:58:29;;;;;;;15.93;12.57;;;23.70;99.90;;;;;;4995607;28;20046;-74
2022/08/17 13:01:03;;;;;;;17.98;12.55;;;23.60;99.90;;;;;;4995723;28;20056;-76
2022/08/17 13:03:42;;;;;;;14.52;11.93;;;23.60;99.90;;;;;;4995703;28;20133;-79
2022/08/17 13:06:13;;;;;;;14.35;12.43;;;23.70;99.90;;;;;;4996007;28;20042;-79
2022/08/17 13:08:40;;;;;;;16.92;12.48;;;23.70;99.90;;;;;;4995989;28;20038;-77
2022/08/17 13:11:08;;;;;;;14.55;11.75;;;23.70;99.90;;;;;;4978355;28;20129;-75
2022/08/17 13:13:37;;;;;;;17.55;12.75;;;23.60;99.90;;;;;;4995318;28;20042;-76
2022/08/17 13:16:15;;;;;;;17.08;12.90;;;23.60;99.90;;;;;;4995511;28;20484;-77
2022/08/17 13:18:49;;;;;;;14.20;10.68;;;23.60;99.90;;;;;;4977574;28;20081;-76
2022/08/17 13:21:26;;;;;;;15.10;11.88;;;23.70;99.90;;;;;;4978637;28;20420;-77
2022/08/17 13:24:09;;;;;;;15.23;11.65;;;23.70;99.90;;;;;;4995327;28;20544;-75
2022/08/17 13:26:38;;;;;;;18.65;12.18;;;23.70;99.90;;;;;;4995424;28;20119;-78
2022/08/17 13:29:07;;;;;;;13.55;11.52;;;23.70;99.90;;;;;;4995483;28;20121;-80
2022/08/17 13:31:38;;;;;;;15.98;13.25;;;23.60;99.90;;;;;;4995334;28;20046;-77